createdAt,value
2019-02-16T00:00:21.509Z,101009.26
2019-02-16T00:02:54.453Z,101003.70
2019-02-16T00:05:25.539Z,101012.52
2019-02-16T00:07:56.697Z,101006.34
2019-02-16T00:10:27.449Z,101003.44
2019-02-16T00:12:58.450Z,101005.10
2019-02-16T00:15:29.434Z,101016.31
2019-02-16T00:18:00.217Z,101005.84
2019-02-16T00:20:30.986Z,101005.70
2019-02-16T00:23:02.101Z,101000.21
2019-02-16T00:25:33.029Z,101003.62
2019-02-16T00:28:03.870Z,101003.00
2019-02-16T00:30:34.636Z,101007.67
2019-02-16T00:33:05.747Z,101008.56
2019-02-16T00:35:37.020Z,101008.92
2019-02-16T00:38:08.071Z,101012.38
2019-02-16T00:40:39.150Z,101009.02
2019-02-16T00:43:10.273Z,101008.78
2019-02-16T00:45:41.078Z,101016.58
2019-02-16T00:48:11.854Z,101019.87
2019-02-16T00:50:42.913Z,101004.70
2019-02-16T00:53:13.919Z,101019.47
2019-02-16T00:55:44.684Z,101014.58
2019-02-16T00:58:15.974Z,101013.19
2019-02-16T01:00:46.743Z,101013.70
2019-02-16T01:03:17.919Z,101013.45
2019-02-16T01:05:49.077Z,101018.92
2019-02-16T01:08:19.865Z,101008.67
2019-02-16T01:10:50.801Z,101011.91
2019-02-16T01:13:21.850Z,101015.33
2019-02-16T01:15:52.840Z,101022.92
2019-02-16T01:18:23.867Z,101018.46
2019-02-16T01:20:54.664Z,101016.87
2019-02-16T01:23:25.444Z,101015.68
2019-02-16T01:25:56.686Z,101018.46
2019-02-16T01:28:27.465Z,101009.29
2019-02-16T01:30:58.247Z,101010.50
2019-02-16T01:33:30.020Z,101007.11
2019-02-16T01:36:01.017Z,101003.19
2019-02-16T01:38:31.887Z,100999.05
2019-02-16T01:41:02.654Z,101003.55
2019-02-16T01:43:33.686Z,101005.27
2019-02-16T01:46:04.782Z,101004.91
2019-02-16T01:48:35.622Z,101013.88
2019-02-16T01:51:06.973Z,101000.84
2019-02-16T01:53:37.844Z,101011.80
2019-02-16T01:56:09.109Z,101006.87
2019-02-16T01:58:40.882Z,101002.00
2019-02-16T02:01:11.923Z,101006.41
2019-02-16T02:03:42.981Z,100999.23
2019-02-16T02:06:14.056Z,101001.56
2019-02-16T02:08:45.344Z,101003.09
2019-02-16T02:11:16.256Z,101000.70
2019-02-16T02:13:47.068Z,101004.38
2019-02-16T02:16:18.087Z,101001.08
2019-02-16T02:18:48.903Z,100995.39
2019-02-16T02:21:20.659Z,101001.38
2019-02-16T02:23:51.517Z,101003.50
2019-02-16T02:26:22.599Z,100999.09
2019-02-16T02:28:53.374Z,101000.02
2019-02-16T02:31:24.172Z,101001.35
2019-02-16T02:33:55.007Z,101004.52
2019-02-16T02:36:26.393Z,101005.21
2019-02-16T02:38:58.699Z,100996.73
2019-02-16T02:41:29.493Z,100998.04
2019-02-16T02:44:00.684Z,100990.06
2019-02-16T02:46:31.712Z,100985.99
2019-02-16T02:49:02.979Z,100981.44
2019-02-16T02:51:34.016Z,100981.10
2019-02-16T02:54:04.882Z,100985.50
2019-02-16T02:56:35.928Z,100986.80
2019-02-16T02:59:07.104Z,100982.30
2019-02-16T03:01:38.356Z,100981.38
2019-02-16T03:04:09.375Z,100978.67
2019-02-16T03:06:40.484Z,100984.42
2019-02-16T03:09:11.837Z,100981.48
2019-02-16T03:11:42.879Z,100978.14
2019-02-16T03:14:14.852Z,100978.66
2019-02-16T03:16:45.931Z,100976.67
2019-02-16T03:19:16.718Z,100971.39
2019-02-16T03:21:48.101Z,100962.98
2019-02-16T03:24:18.881Z,100959.52
2019-02-16T03:27:01.261Z,100960.38
2019-02-16T03:29:36.485Z,100963.14
2019-02-16T03:32:46.455Z,100963.56
2019-02-16T03:35:39.023Z,100962.27
2019-02-16T03:38:46.024Z,100959.30
2019-02-16T03:41:17.162Z,100964.98
2019-02-16T03:43:48.472Z,100967.39
2019-02-16T03:46:19.552Z,100963.61
2019-02-16T03:48:51.104Z,100964.34
2019-02-16T03:51:22.717Z,100964.30
2019-02-16T03:53:53.758Z,100971.11
2019-02-16T03:56:24.763Z,100972.53
2019-02-16T03:58:56.351Z,100965.12
2019-02-16T04:01:27.426Z,100971.27
2019-02-16T04:03:58.224Z,100975.61
2019-02-16T04:06:29.254Z,100968.62
2019-02-16T04:09:00.043Z,100976.86
2019-02-16T04:11:31.185Z,100983.80
2019-02-16T04:14:02.217Z,100982.64
2019-02-16T04:16:33.250Z,100993.63
2019-02-16T04:19:04.059Z,100997.17
2019-02-16T04:21:34.922Z,101006.02
2019-02-16T04:24:06.182Z,101017.68
2019-02-16T04:26:37.221Z,101033.25
2019-02-16T04:29:08.380Z,101047.22
2019-02-16T04:31:39.933Z,101043.32
2019-02-16T04:34:10.811Z,101043.23
2019-02-16T04:36:41.597Z,101036.89
2019-02-16T04:39:13.209Z,101031.45
2019-02-16T04:41:44.021Z,101010.07
2019-02-16T04:44:15.021Z,101010.86
2019-02-16T04:46:46.673Z,101003.61
2019-02-16T04:49:17.976Z,101003.61
2019-02-16T04:51:49.084Z,100995.20
2019-02-16T04:54:20.318Z,100992.45
2019-02-16T04:56:51.864Z,100992.15
2019-02-16T04:59:23.253Z,100994.44
2019-02-16T05:01:54.297Z,100991.89
2019-02-16T05:04:25.079Z,100990.17
2019-02-16T05:06:56.142Z,100987.14
2019-02-16T05:09:27.414Z,100988.85
2019-02-16T05:11:58.785Z,100983.23
2019-02-16T05:14:30.101Z,100977.38
2019-02-16T05:17:01.173Z,100971.61
2019-02-16T05:19:31.966Z,100976.09
2019-02-16T05:22:03.259Z,100979.20
2019-02-16T05:24:34.267Z,100983.50
2019-02-16T05:27:05.373Z,100975.44
2019-02-16T05:29:36.400Z,100974.23
2019-02-16T05:32:07.356Z,100969.11
2019-02-16T05:34:38.151Z,100968.98
2019-02-16T05:37:09.181Z,100967.44
2019-02-16T05:39:40.473Z,100963.99
2019-02-16T05:42:11.288Z,100969.53
2019-02-16T05:44:42.066Z,100961.11
2019-02-16T05:47:13.113Z,100968.20
2019-02-16T05:49:44.424Z,100971.23
2019-02-16T05:52:15.444Z,100976.73
2019-02-16T05:54:46.519Z,100982.13
2019-02-16T05:57:17.621Z,100977.61
2019-02-16T05:59:48.933Z,100973.72
2019-02-16T06:02:19.735Z,100967.32
2019-02-16T06:04:50.570Z,100973.41
2019-02-16T06:07:21.685Z,100971.58
2019-02-16T06:09:52.475Z,100964.50
2019-02-16T06:12:23.278Z,100969.33
2019-02-16T06:14:54.292Z,100977.81
2019-02-16T06:17:25.412Z,100983.00
2019-02-16T06:19:56.431Z,100984.82
2019-02-16T06:22:27.456Z,100996.22
2019-02-16T06:24:58.713Z,100993.80
2019-02-16T06:27:29.830Z,100988.18
2019-02-16T06:30:00.620Z,100988.44
2019-02-16T06:32:31.989Z,100999.11
2019-02-16T06:35:21.787Z,101000.87
2019-02-16T06:37:52.861Z,101007.63
2019-02-16T06:40:24.869Z,101013.29
2019-02-16T06:42:55.952Z,101013.66
2019-02-16T06:45:27.216Z,101020.31
2019-02-16T06:47:58.500Z,101018.31
2019-02-16T06:50:36.745Z,101015.92
2019-02-16T06:53:12.592Z,101016.89
2019-02-16T06:55:50.278Z,101025.95
2019-02-16T06:58:21.545Z,101031.88
2019-02-16T07:00:52.573Z,101033.31
2019-02-16T07:03:23.479Z,101034.15
2019-02-16T07:05:54.305Z,101031.98
2019-02-16T07:08:25.182Z,101030.95
2019-02-16T07:10:56.035Z,101027.39
2019-02-16T07:13:27.125Z,101028.25
2019-02-16T07:16:29.356Z,101030.62
2019-02-16T07:19:04.564Z,101032.76
2019-02-16T07:21:35.486Z,101039.30
2019-02-16T07:24:06.346Z,101039.48
2019-02-16T07:26:37.373Z,101047.82
2019-02-16T07:29:08.396Z,101042.08
2019-02-16T07:31:39.468Z,101034.94
2019-02-16T07:34:10.287Z,101036.78
2019-02-16T07:36:41.448Z,101040.42
2019-02-16T07:39:12.352Z,101045.75
2019-02-16T07:41:43.467Z,101036.63
2019-02-16T07:44:36.857Z,101038.91
2019-02-16T07:47:25.408Z,101040.91
2019-02-16T07:50:02.201Z,101044.06
2019-02-16T07:52:49.044Z,101043.55
2019-02-16T07:55:44.925Z,101051.84
2019-02-16T07:58:32.853Z,101039.21
2019-02-16T08:01:21.376Z,101046.44
2019-02-16T08:04:15.676Z,101037.75
2019-02-16T08:07:07.807Z,101038.72
2019-02-16T08:09:43.762Z,101041.45
2019-02-16T08:12:33.184Z,101044.92
2019-02-16T08:15:23.423Z,101047.95
2019-02-16T08:18:08.429Z,101047.72
2019-02-16T08:20:53.681Z,101048.02
2019-02-16T08:23:40.149Z,101041.39
2019-02-16T08:26:32.278Z,101046.14
2019-02-16T08:29:17.955Z,101038.45
2019-02-16T08:31:57.845Z,101042.83
2019-02-16T08:34:35.746Z,101042.32
2019-02-16T08:37:20.655Z,101042.45
2019-02-16T08:40:08.726Z,101041.80
2019-02-16T08:42:57.023Z,101043.87
2019-02-16T08:45:50.129Z,101039.06
2019-02-16T08:48:40.176Z,101034.05
2019-02-16T08:51:16.929Z,101037.59
2019-02-16T08:54:05.429Z,101029.14
2019-02-16T08:57:01.215Z,101039.52
2019-02-16T08:59:49.536Z,101041.25
2019-02-16T09:02:25.262Z,101043.45
2019-02-16T09:05:08.072Z,101045.62
2019-02-16T09:08:03.633Z,101040.42
2019-02-16T09:10:54.790Z,101039.46
2019-02-16T09:13:50.617Z,101029.14
2019-02-16T09:16:44.228Z,101029.02
2019-02-16T09:19:24.981Z,101017.19
2019-02-16T09:22:17.827Z,101025.34
2019-02-16T09:27:56.611Z,101028.83
2019-02-16T09:30:55.677Z,101026.45
2019-02-16T09:33:36.902Z,101020.03
2019-02-16T09:36:33.074Z,101021.88
2019-02-16T09:39:13.427Z,101019.64
2019-02-16T09:42:06.929Z,101024.87
2019-02-16T09:44:46.902Z,101031.05
2019-02-16T09:47:35.087Z,101020.14
2019-02-16T09:50:20.981Z,101025.48
2019-02-16T09:53:09.891Z,101020.41
2019-02-16T09:56:05.804Z,101021.09
2019-02-16T09:58:56.080Z,101021.45
2019-02-16T10:01:41.406Z,101015.28
2019-02-16T10:04:27.890Z,101023.06
2019-02-16T10:07:16.146Z,101026.52
2019-02-16T10:10:12.084Z,101023.50
2019-02-16T10:13:11.262Z,101020.64
2019-02-16T10:16:03.938Z,101029.91
2019-02-16T10:19:05.924Z,101037.52
2019-02-16T10:21:47.282Z,101035.92
2019-02-16T10:24:30.637Z,101025.92
2019-02-16T10:27:20.719Z,101021.59
2019-02-16T10:30:13.834Z,101019.95
2019-02-16T10:33:02.824Z,101021.27
2019-02-16T10:35:55.745Z,101027.27
2019-02-16T10:38:45.881Z,101026.02
2019-02-16T10:41:23.537Z,101026.48
2019-02-16T10:44:07.882Z,101029.38
2019-02-16T10:46:47.176Z,101024.78
2019-02-16T10:49:32.611Z,101025.05
2019-02-16T10:52:22.682Z,101024.20
2019-02-16T10:55:24.489Z,101021.74
2019-02-16T10:58:06.766Z,101016.83
2019-02-16T11:00:49.975Z,101012.42
2019-02-16T11:03:33.670Z,101015.20
2019-02-16T11:06:12.003Z,101008.35
2019-02-16T11:08:50.323Z,101005.55
2019-02-16T11:11:45.562Z,101004.32
2019-02-16T11:14:24.682Z,101005.47
2019-02-16T11:17:20.681Z,100995.33
2019-02-16T11:20:10.486Z,100989.39
2019-02-16T11:23:03.465Z,100985.66
2019-02-16T11:25:48.594Z,100988.08
2019-02-16T11:28:31.895Z,100979.89
2019-02-16T11:31:13.530Z,100981.42
2019-02-16T11:33:58.970Z,100983.47
2019-02-16T11:36:52.838Z,100978.44
2019-02-16T11:39:33.627Z,100978.16
2019-02-16T11:42:12.367Z,100977.27
2019-02-16T11:44:58.809Z,100972.51
2019-02-16T11:48:03.554Z,100963.27
2019-02-16T11:50:49.304Z,100964.00
2019-02-16T11:53:39.108Z,100969.20
2019-02-16T11:56:25.878Z,100973.88
2019-02-16T11:59:06.416Z,100963.97
2019-02-16T12:01:55.832Z,100963.31
2019-02-16T12:04:41.077Z,100963.98
2019-02-16T12:07:27.251Z,100952.58
2019-02-16T12:10:22.819Z,100954.09
2019-02-16T12:13:09.851Z,100955.69
2019-02-16T12:16:02.736Z,100947.25
2019-02-16T12:18:51.017Z,100938.92
2019-02-16T12:21:39.447Z,100940.14
2019-02-16T12:24:17.325Z,100934.19
2019-02-16T12:26:58.895Z,100928.42
2019-02-16T12:29:39.640Z,100933.94
2019-02-16T12:32:28.167Z,100923.70
2019-02-16T12:35:11.289Z,100925.39
2019-02-16T12:37:47.689Z,100924.75
2019-02-16T12:40:55.850Z,100918.92
2019-02-16T12:43:36.798Z,100913.41
2019-02-16T12:46:23.540Z,100914.59
2019-02-16T12:49:01.682Z,100901.16
2019-02-16T12:51:46.733Z,100885.58
2019-02-16T12:54:36.769Z,100885.58
2019-02-16T12:57:32.690Z,100891.08
2019-02-16T13:00:13.156Z,100885.88
2019-02-16T13:03:12.202Z,100881.33
2019-02-16T13:06:00.789Z,100872.82
2019-02-16T13:08:42.847Z,100874.80
2019-02-16T13:11:20.856Z,100874.48
2019-02-16T13:14:08.532Z,100854.89
2019-02-16T13:17:04.628Z,100854.89
2019-02-16T13:19:52.181Z,100848.44
2019-02-16T13:22:37.607Z,100857.16
2019-02-16T13:25:24.524Z,100855.70
2019-02-16T13:28:10.655Z,100852.69
2019-02-16T13:30:58.655Z,100850.44
2019-02-16T13:33:47.217Z,100851.75
2019-02-16T13:36:35.491Z,100849.66
2019-02-16T13:39:35.376Z,100840.95
2019-02-16T13:42:40.420Z,100838.35
2019-02-16T13:45:20.766Z,100835.06
2019-02-16T13:47:56.416Z,100833.52
2019-02-16T13:51:04.869Z,100836.27
2019-02-16T13:53:54.721Z,100835.41
2019-02-16T13:56:35.471Z,100838.81
2019-02-16T13:59:19.248Z,100845.12
2019-02-16T14:02:08.250Z,100841.47
2019-02-16T14:04:49.432Z,100838.29
2019-02-16T14:07:33.504Z,100840.33
2019-02-16T14:10:16.998Z,100835.91
2019-02-16T14:13:14.070Z,100837.69
2019-02-16T14:16:04.097Z,100835.30
2019-02-16T14:18:34.909Z,100833.76
2019-02-16T14:21:05.718Z,100834.73
2019-02-16T14:23:36.754Z,100831.14
2019-02-16T14:26:07.630Z,100834.42
2019-02-16T14:28:38.688Z,100834.30
2019-02-16T14:31:09.581Z,100827.23
2019-02-16T14:33:40.392Z,100826.55
2019-02-16T14:36:11.345Z,100828.42
2019-02-16T14:38:50.545Z,100826.87
2019-02-16T14:41:21.838Z,100825.33
2019-02-16T14:43:52.894Z,100820.43
2019-02-16T14:46:23.686Z,100823.99
2019-02-16T14:48:54.727Z,100816.17
2019-02-16T14:51:25.521Z,100814.49
2019-02-16T14:53:56.705Z,100811.55
2019-02-16T14:56:27.812Z,100815.33
2019-02-16T14:58:59.777Z,100816.51
2019-02-16T15:01:30.870Z,100811.01
2019-02-16T15:04:01.692Z,100813.39
2019-02-16T15:06:32.706Z,100805.07
2019-02-16T15:09:04.447Z,100803.49
2019-02-16T15:11:35.677Z,100805.54
2019-02-16T15:14:06.821Z,100795.07
2019-02-16T15:16:37.863Z,100799.33
2019-02-16T15:19:08.728Z,100795.20
2019-02-16T15:21:39.613Z,100795.56
2019-02-16T15:24:10.434Z,100797.69
2019-02-16T15:26:41.302Z,100793.13
2019-02-16T15:29:12.110Z,100794.23
2019-02-16T15:31:42.899Z,100791.02
2019-02-16T15:34:14.005Z,100790.17
2019-02-16T15:36:44.811Z,100793.05
2019-02-16T15:39:15.625Z,100792.42
2019-02-16T15:41:46.430Z,100789.75
2019-02-16T15:44:17.479Z,100784.53
2019-02-16T15:46:48.577Z,100784.90
2019-02-16T15:49:19.379Z,100786.39
2019-02-16T15:51:50.501Z,100781.64
2019-02-16T15:54:21.315Z,100764.38
2019-02-16T15:56:53.074Z,100764.38
2019-02-16T15:59:23.907Z,100774.94
2019-02-16T16:01:55.035Z,100773.70
2019-02-16T16:04:25.847Z,100764.19
2019-02-16T16:06:56.876Z,100764.19
2019-02-16T16:09:39.530Z,100769.99
2019-02-16T16:12:25.698Z,100770.55
2019-02-16T16:15:02.590Z,100770.52
2019-02-16T16:17:55.444Z,100768.26
2019-02-16T16:20:38.591Z,100773.06
2019-02-16T16:23:26.831Z,100771.80
2019-02-16T16:26:26.002Z,100774.06
2019-02-16T16:29:18.950Z,100780.02
2019-02-16T16:32:11.385Z,100778.36
2019-02-16T16:34:59.217Z,100782.64
2019-02-16T16:37:45.470Z,100783.23
2019-02-16T16:40:53.280Z,100784.61
2019-02-16T16:43:58.366Z,100775.56
2019-02-16T16:46:46.792Z,100778.03
2019-02-16T16:49:39.885Z,100785.35
2019-02-16T16:52:28.731Z,100780.08
2019-02-16T16:55:29.201Z,100781.81
2019-02-16T16:58:17.757Z,100785.44
2019-02-16T17:01:06.270Z,100793.92
2019-02-16T17:03:56.465Z,100796.58
2019-02-16T17:06:33.812Z,100794.86
2019-02-16T17:09:34.520Z,100800.49
2019-02-16T17:12:23.553Z,100793.78
2019-02-16T17:15:08.530Z,100790.62
2019-02-16T17:17:54.275Z,100792.30
2019-02-16T17:20:44.575Z,100797.41
2019-02-16T17:23:25.807Z,100797.14
2019-02-16T17:26:15.832Z,100800.19
2019-02-16T17:29:05.935Z,100790.94
2019-02-16T17:32:03.557Z,100801.08
2019-02-16T17:34:44.621Z,100803.86
2019-02-16T17:37:34.709Z,100806.80
2019-02-16T17:40:27.764Z,100806.75
2019-02-16T17:43:07.987Z,100813.41
2019-02-16T17:46:07.225Z,100813.35
2019-02-16T17:48:55.375Z,100813.30
2019-02-16T17:51:48.212Z,100826.53
2019-02-16T17:54:47.284Z,100822.91
2019-02-16T17:57:34.369Z,100818.81
2019-02-16T18:00:22.570Z,100821.77
2019-02-16T18:03:11.067Z,100817.58
2019-02-16T18:06:01.241Z,100814.95
2019-02-16T18:08:56.929Z,100816.11
2019-02-16T18:11:58.882Z,100815.89
2019-02-16T18:14:47.292Z,100813.23
2019-02-16T18:17:41.040Z,100810.95
2019-02-16T18:20:21.010Z,100809.80
2019-02-16T18:23:00.454Z,100805.34
2019-02-16T18:25:37.750Z,100801.95
2019-02-16T18:28:23.765Z,100803.06
2019-02-16T18:31:22.090Z,100797.27
2019-02-16T18:34:10.645Z,100801.61
2019-02-16T18:37:03.461Z,100804.31
2019-02-16T18:39:50.392Z,100807.08
2019-02-16T18:42:29.772Z,100804.14
2019-02-16T18:45:11.513Z,100789.94
2019-02-16T18:47:54.266Z,100795.77
2019-02-16T18:50:50.130Z,100795.19
2019-02-16T18:53:45.941Z,100792.28
2019-02-16T18:56:35.092Z,100787.41
2019-02-16T18:59:23.425Z,100793.10
2019-02-16T19:02:16.103Z,100796.31
2019-02-16T19:04:56.920Z,100797.81
2019-02-16T19:07:35.150Z,100793.09
2019-02-16T19:10:14.422Z,100794.78
2019-02-16T19:12:57.588Z,100791.80
2019-02-16T19:15:56.760Z,100791.67
2019-02-16T19:18:55.642Z,100790.77
2019-02-16T19:21:43.513Z,100793.75
2019-02-16T19:24:36.369Z,100789.08
2019-02-16T19:27:29.458Z,100787.66
2019-02-16T19:30:31.447Z,100781.73
2019-02-16T19:33:18.667Z,100777.45
2019-02-16T19:36:08.468Z,100779.86
2019-02-16T19:38:51.199Z,100776.20
2019-02-16T19:41:31.893Z,100774.11
2019-02-16T19:44:37.346Z,100770.94
2019-02-16T19:47:21.396Z,100778.56
2019-02-16T19:50:15.466Z,100764.39
2019-02-16T19:53:08.415Z,100764.89
2019-02-16T19:55:59.069Z,100763.55
2019-02-16T19:58:49.408Z,100760.20
2019-02-16T20:01:26.771Z,100757.70
2019-02-16T20:04:14.222Z,100756.92
2019-02-16T20:07:02.733Z,100749.69
2019-02-16T20:09:52.634Z,100752.48
2019-02-16T20:12:45.649Z,100755.79
2019-02-16T20:15:32.725Z,100757.34
2019-02-16T20:18:23.100Z,100759.52
2019-02-16T20:21:11.617Z,100753.64
2019-02-16T20:24:00.834Z,100754.23
2019-02-16T20:26:56.396Z,100757.07
2019-02-16T20:29:46.450Z,100762.87
2019-02-16T20:32:26.634Z,100755.13
2019-02-16T20:35:18.141Z,100761.33
2019-02-16T20:38:11.158Z,100764.88
2019-02-16T20:40:50.545Z,100765.18
2019-02-16T20:43:36.584Z,100763.00
2019-02-16T20:46:21.384Z,100760.15
2019-02-16T20:49:23.349Z,100757.62
2019-02-16T20:52:22.620Z,100756.81
2019-02-16T20:55:01.551Z,100757.49
2019-02-16T20:57:47.694Z,100753.75
2019-02-16T21:00:28.871Z,100753.44
2019-02-16T21:03:18.931Z,100752.79
2019-02-16T21:06:08.274Z,100751.58
2019-02-16T21:08:58.824Z,100747.27
2019-02-16T21:11:51.723Z,100751.20
2019-02-16T21:14:29.453Z,100755.23
2019-02-16T21:17:34.234Z,100754.79
2019-02-16T21:20:33.096Z,100748.16
2019-02-16T21:23:18.077Z,100750.68
2019-02-16T21:26:12.452Z,100752.02
2019-02-16T21:29:20.728Z,100745.98
2019-02-16T21:32:25.756Z,100745.78
2019-02-16T21:35:18.890Z,100744.62
2019-02-16T21:38:23.807Z,100749.20
2019-02-16T21:41:19.442Z,100753.28
2019-02-16T21:44:05.998Z,100750.17
2019-02-16T21:46:54.311Z,100756.26
2019-02-16T21:49:47.455Z,100754.23
2019-02-16T21:52:25.300Z,100745.81
2019-02-16T21:55:08.028Z,100750.31
2019-02-16T21:57:55.236Z,100752.98
2019-02-16T22:00:40.513Z,100750.18
2019-02-16T22:03:36.360Z,100755.44
2019-02-16T22:06:17.107Z,100754.45
2019-02-16T22:09:05.657Z,100756.55
2019-02-16T22:11:55.512Z,100751.83
2019-02-16T22:14:26.301Z,100754.39
2019-02-16T22:16:57.279Z,100751.47
2019-02-16T22:19:28.550Z,100753.72
2019-02-16T22:21:59.429Z,100747.00
2019-02-16T22:24:30.676Z,100744.98
2019-02-16T22:27:01.555Z,100744.73
2019-02-16T22:29:32.887Z,100740.02
2019-02-16T22:32:03.784Z,100743.66
2019-02-16T22:34:34.550Z,100738.87
2019-02-16T22:37:05.588Z,100739.86
2019-02-16T22:39:36.681Z,100732.06
2019-02-16T22:42:07.788Z,100736.03
2019-02-16T22:44:38.631Z,100738.36
2019-02-16T22:47:09.441Z,100726.30
2019-02-16T22:49:40.462Z,100731.62
2019-02-16T22:52:11.566Z,100732.94
2019-02-16T22:54:42.618Z,100731.73
2019-02-16T22:57:13.501Z,100726.45
2019-02-16T22:59:44.863Z,100723.11
2019-02-16T23:02:15.865Z,100720.46
2019-02-16T23:04:47.012Z,100722.17
2019-02-16T23:07:17.840Z,100721.58
2019-02-16T23:09:49.111Z,100725.34
2019-02-16T23:12:19.934Z,100721.66
2019-02-16T23:14:50.973Z,100725.61
2019-02-16T23:17:22.175Z,100727.34
2019-02-16T23:19:52.989Z,100724.11
2019-02-16T23:22:23.906Z,100718.97
2019-02-16T23:24:55.001Z,100721.26
2019-02-16T23:27:26.391Z,100720.48
2019-02-16T23:29:57.364Z,100721.47
2019-02-16T23:32:28.525Z,100721.58
2019-02-16T23:34:59.924Z,100720.81
2019-02-16T23:37:31.033Z,100726.64
2019-02-16T23:40:02.068Z,100722.44
2019-02-16T23:42:34.292Z,100724.87
2019-02-16T23:45:08.026Z,100719.13
2019-02-16T23:47:38.840Z,100726.25
2019-02-16T23:50:10.009Z,100730.34
2019-02-16T23:52:40.809Z,100726.33
2019-02-16T23:55:11.920Z,100726.64
2019-02-16T23:57:43.021Z,100726.50
